Hamada, Japan

7:14 PM JST on July 31, 2014 (GMT +0900)
Iwami (RJOW) Elev 177 ft | 34.68 °N, 131.79 °E | Change Station

Current weather conditions updated 14 minutes ago

Scattered Clouds
Scattered Clouds
84 °F
Feels Like 92 °F
N
5
Wind Variable Wind from South

Tomorrow is forecast to be Much Cooler than today. Afternoon showers and thunderstorms.

Today
High -- | Low -- °F
--% Chance of Precip.
Yesterday
High -- | Low -- °F
Precip. -- in
5:20 AM 7:15 PM
Waxing Crescent, 17% visible
Pressure 29.83 in
Visibility 6.2 miles
Clouds Few 2000 ft
Scattered Clouds 10000 ft
Heat Index 92 °F
Dew Point 75 °F
Humidity 74%
Rainfall 0.00 in
Snow Depth Not available.
UV 0 out of 12
Pollen Not available.
Air Quality Not available.
Flu Activity Not available.
METAR RJOW 311000Z 17004KT 140V200 9999 FEW020 SCT100 BKN/// 29/24 Q1010

More Conditions Fewer Conditions

Pressure 29.83 in
Visibility 6.2 miles
Clouds Few 2000 ft
Scattered Clouds 10000 ft
Heat Index 92 °F
Dew Point 75 °F
Humidity 74%
Rainfall 0.00 in
Snow Depth Not available.
UV 0 out of 12
Pollen Not available.
Air Quality Not available.
Flu Activity Not available.
METAR RJOW 311000Z 17004KT 140V200 9999 FEW020 SCT100 BKN/// 29/24 Q1010

More Conditions Fewer Conditions

10-Day Weather Forecast

Almanac

Astronomy

Jul. 31, 2014 Rise Set
Actual Time 5:20 AM JST 7:15 PM JST
Civil Twilight 4:52 AM JST 7:43 PM JST
Nautical Twilight 4:18 AM JST 8:17 PM JST
Astronomical Twilight 3:42 AM JST 8:53 PM JST
Moon 9:02 AM JST 9:21 PM JST
Length of Visible Light 14h 51m
Length of Day
13h 55m
Tomorrow will be 1m 36s shorter.
Waxing Crescent, 17% of the Moon is Illuminated
Today
Waxing Crescent
Aug 3
First Quarter
Aug 10
Full
Aug 17
Last Quarter
Aug 25
New

Yesterday's Extremes

Country Highs Country Lows

Community

WunderPhotos

Upload Photos

1,739,284 photos uploaded!

Nearby

Snow Depth

Not available.

Earthquake Activity

City Distance Mag. Time & Date
No recent earthquake activity has been reported nearby.
Minimum magnitude displayed is 2.5.

Coastal Water Temperatures

Place Temperature
No Stations Reporting

Nearby Weather Stations

There are no personal weather stations in this area.